createdAt,value
2022-10-28T00:01:02.851Z,20.37
2022-10-28T00:04:05.777Z,20.34
2022-10-28T00:07:08.718Z,20.26
2022-10-28T00:10:11.482Z,20.32
2022-10-28T00:13:14.271Z,20.36
2022-10-28T00:16:18.967Z,20.31
2022-10-28T00:19:21.806Z,20.34
2022-10-28T00:22:24.673Z,20.30
2022-10-28T00:25:27.714Z,20.27
2022-10-28T00:28:30.462Z,20.30
2022-10-28T00:31:35.024Z,20.29
2022-10-28T00:34:38.778Z,20.30
2022-10-28T00:37:41.586Z,20.28
2022-10-28T00:40:44.326Z,20.29
2022-10-28T00:43:48.196Z,20.24
2022-10-28T00:46:53.772Z,20.27
2022-10-28T00:49:58.992Z,20.27
2022-10-28T00:53:03.219Z,20.24
2022-10-28T00:56:06.453Z,20.25
2022-10-28T00:59:11.208Z,20.22
2022-10-28T01:02:15.701Z,20.22
2022-10-28T01:05:20.509Z,20.21
2022-10-28T01:08:23.323Z,20.21
2022-10-28T01:11:41.059Z,20.21
2022-10-28T01:14:50.494Z,20.19
2022-10-28T01:18:01.742Z,20.18
2022-10-28T01:21:25.403Z,20.20
2022-10-28T01:24:37.536Z,20.16
2022-10-28T01:27:57.910Z,20.14
2022-10-28T01:31:14.523Z,20.15
2022-10-28T01:34:21.181Z,20.13
2022-10-28T01:37:31.555Z,20.12
2022-10-28T01:40:36.370Z,20.11
2022-10-28T01:43:43.115Z,20.10
2022-10-28T01:46:49.555Z,20.08
2022-10-28T01:49:55.667Z,20.06
2022-10-28T01:52:59.876Z,20.07
2022-10-28T01:56:05.097Z,20.07
2022-10-28T01:59:10.651Z,20.03
2022-10-28T02:02:15.719Z,20.04
2022-10-28T02:05:37.195Z,20.06
2022-10-28T02:08:47.552Z,20.03
2022-10-28T02:12:08.096Z,19.99
2022-10-28T02:15:16.007Z,19.99
2022-10-28T02:18:28.113Z,19.99
2022-10-28T02:21:35.199Z,19.99
2022-10-28T02:24:41.700Z,20.04
2022-10-28T02:27:46.947Z,20.01
2022-10-28T02:30:52.587Z,19.98
2022-10-28T02:34:01.652Z,19.99
2022-10-28T02:37:07.452Z,19.99
2022-10-28T02:40:13.651Z,19.97
2022-10-28T02:43:18.619Z,19.98
2022-10-28T02:46:22.315Z,19.96
2022-10-28T02:49:26.929Z,19.96
2022-10-28T02:52:31.440Z,19.98
2022-10-28T02:55:36.603Z,19.98
2022-10-28T02:58:40.766Z,19.97
2022-10-28T03:01:43.665Z,19.99
2022-10-28T03:04:47.928Z,19.98
2022-10-28T03:07:50.875Z,19.98
2022-10-28T03:10:53.877Z,19.96
2022-10-28T03:13:56.623Z,19.94
2022-10-28T03:16:59.541Z,19.98
2022-10-28T03:20:03.711Z,19.95
2022-10-28T03:23:06.460Z,19.96
2022-10-28T03:26:09.184Z,19.95
2022-10-28T03:29:11.922Z,19.96
2022-10-28T03:32:14.814Z,19.95
2022-10-28T03:35:19.091Z,19.96
2022-10-28T03:38:21.927Z,19.94
2022-10-28T03:41:24.687Z,19.96
2022-10-28T03:44:27.494Z,19.96
2022-10-28T03:47:31.321Z,19.93
2022-10-28T03:50:35.635Z,19.93
2022-10-28T03:53:38.419Z,19.95
2022-10-28T03:56:41.505Z,19.96
2022-10-28T03:59:44.314Z,19.94
2022-10-28T04:02:50.582Z,19.95
2022-10-28T04:05:54.956Z,19.94
2022-10-28T04:08:57.833Z,19.94
2022-10-28T04:12:00.664Z,19.94
2022-10-28T04:15:03.471Z,19.98
2022-10-28T04:18:06.675Z,19.97
2022-10-28T04:21:10.828Z,19.93
2022-10-28T04:24:13.733Z,19.94
2022-10-28T04:27:16.546Z,19.94
2022-10-28T04:30:19.384Z,19.95
2022-10-28T04:33:22.140Z,19.97
2022-10-28T04:36:26.310Z,19.93
2022-10-28T04:39:29.119Z,19.95
2022-10-28T04:42:31.911Z,19.96
2022-10-28T04:45:34.696Z,19.92
2022-10-28T04:48:37.628Z,19.92
2022-10-28T04:51:41.792Z,19.92
2022-10-28T04:54:44.594Z,19.89
2022-10-28T04:57:54.262Z,19.91
2022-10-28T05:00:57.091Z,19.93
2022-10-28T05:03:59.922Z,19.92
2022-10-28T05:07:04.046Z,19.91
2022-10-28T05:10:07.545Z,19.89
2022-10-28T05:13:10.326Z,19.89
2022-10-28T05:16:13.115Z,19.87
2022-10-28T05:19:15.877Z,19.91
2022-10-28T05:22:20.054Z,19.95
2022-10-28T05:25:23.604Z,19.93
2022-10-28T05:28:26.467Z,19.94
2022-10-28T05:31:29.335Z,19.91
2022-10-28T05:34:32.154Z,19.92
2022-10-28T05:37:36.272Z,19.95
2022-10-28T05:40:39.012Z,19.92
2022-10-28T05:43:41.819Z,19.94
2022-10-28T05:46:44.579Z,19.92
2022-10-28T05:49:47.369Z,19.94
2022-10-28T05:52:52.478Z,19.95
2022-10-28T05:55:55.292Z,19.94
2022-10-28T05:58:58.171Z,19.94
2022-10-28T06:02:00.930Z,19.98
2022-10-28T06:05:03.783Z,19.95
2022-10-28T06:08:08.207Z,19.94
2022-10-28T06:11:09.398Z,19.95
2022-10-28T06:14:12.238Z,19.94
2022-10-28T06:17:15.044Z,19.95
2022-10-28T06:20:18.399Z,19.95
2022-10-28T06:23:22.648Z,19.97
2022-10-28T06:26:25.360Z,19.98
2022-10-28T06:29:28.157Z,20.01
2022-10-28T06:32:30.899Z,20.01
2022-10-28T06:35:34.251Z,20.00
2022-10-28T06:38:38.407Z,20.02
2022-10-28T06:41:41.261Z,19.99
2022-10-28T06:44:44.018Z,20.02
2022-10-28T06:47:48.389Z,20.36
2022-10-28T06:50:51.447Z,20.10
2022-10-28T06:53:55.569Z,20.09
2022-10-28T06:56:58.345Z,20.18
2022-10-28T07:00:01.149Z,20.42
2022-10-28T07:03:04.118Z,20.32
2022-10-28T07:06:07.311Z,20.35
2022-10-28T07:09:14.315Z,20.30
2022-10-28T07:15:24.940Z,20.37
2022-10-28T07:18:28.558Z,20.38
2022-10-28T07:21:31.385Z,20.30
2022-10-28T07:24:35.690Z,20.32
2022-10-28T07:27:38.554Z,20.31
2022-10-28T07:30:41.288Z,20.33
2022-10-28T07:33:44.112Z,20.33
2022-10-28T07:36:47.033Z,20.34
2022-10-28T07:39:51.244Z,20.32
2022-10-28T07:42:54.268Z,20.36
2022-10-28T07:45:57.642Z,20.38
2022-10-28T07:49:00.505Z,20.39
2022-10-28T07:52:03.493Z,20.41
2022-10-28T07:55:08.204Z,20.39
2022-10-28T07:58:10.989Z,20.39
2022-10-28T08:01:15.404Z,20.42
2022-10-28T08:04:18.446Z,20.57
2022-10-28T08:07:21.389Z,20.62
2022-10-28T08:10:25.533Z,20.61
2022-10-28T08:13:28.281Z,20.66
2022-10-28T08:16:31.540Z,20.64
2022-10-28T08:19:34.491Z,20.71
2022-10-28T08:22:37.230Z,20.51
2022-10-28T08:25:48.187Z,20.48
2022-10-28T08:28:51.110Z,20.39
2022-10-28T08:31:53.953Z,20.23
2022-10-28T08:34:56.751Z,20.23
2022-10-28T08:37:59.572Z,20.07
2022-10-28T08:41:09.365Z,20.01
2022-10-28T08:44:27.109Z,19.96
2022-10-28T08:47:36.676Z,19.97
2022-10-28T08:50:45.550Z,20.04
2022-10-28T08:53:50.803Z,19.94
2022-10-28T08:56:56.328Z,20.01
2022-10-28T09:00:00.108Z,19.96
2022-10-28T09:03:09.606Z,19.99
2022-10-28T09:06:12.630Z,20.30
2022-10-28T09:09:18.853Z,20.04
2022-10-28T09:12:30.019Z,20.05
2022-10-28T09:15:36.303Z,20.13
2022-10-28T09:18:50.840Z,20.00
2022-10-28T09:21:59.804Z,20.00
2022-10-28T09:25:03.664Z,20.04
2022-10-28T09:28:17.978Z,19.90
2022-10-28T09:31:26.868Z,19.91
2022-10-28T09:34:36.190Z,20.11
2022-10-28T09:37:41.505Z,20.36
2022-10-28T09:40:47.845Z,20.39
2022-10-28T09:43:54.539Z,20.52
2022-10-28T09:47:00.373Z,20.55
2022-10-28T09:50:05.555Z,20.59
2022-10-28T09:53:14.068Z,20.55
2022-10-28T09:56:16.896Z,20.56
2022-10-28T09:59:21.164Z,20.58
2022-10-28T10:02:28.584Z,20.59
2022-10-28T10:05:32.494Z,20.74
2022-10-28T10:08:37.594Z,20.65
2022-10-28T10:11:43.132Z,20.65
2022-10-28T10:14:50.263Z,20.68
2022-10-28T10:17:53.403Z,20.67
2022-10-28T10:20:58.708Z,20.67
2022-10-28T10:24:01.500Z,20.69
2022-10-28T10:27:13.529Z,20.73
2022-10-28T10:30:20.777Z,20.71
2022-10-28T10:33:25.560Z,20.67
2022-10-28T10:36:31.574Z,20.75
2022-10-28T10:39:37.703Z,20.83
2022-10-28T10:42:51.628Z,20.69
2022-10-28T10:46:06.093Z,20.74
2022-10-28T10:49:14.387Z,20.72
2022-10-28T10:52:19.419Z,20.69
2022-10-28T10:55:24.678Z,20.73
2022-10-28T10:58:29.253Z,20.74
2022-10-28T11:01:36.445Z,20.80
2022-10-28T11:04:39.375Z,20.79
2022-10-28T11:07:48.355Z,20.89
2022-10-28T11:11:03.743Z,21.12
2022-10-28T11:14:08.930Z,21.09
2022-10-28T11:17:24.323Z,21.00
2022-10-28T11:20:31.103Z,20.95
2022-10-28T11:23:42.166Z,20.97
2022-10-28T11:26:53.552Z,21.06
2022-10-28T11:29:58.494Z,20.96
2022-10-28T11:33:28.889Z,20.96
2022-10-28T11:36:35.366Z,20.99
2022-10-28T11:39:41.764Z,20.96
2022-10-28T11:42:49.690Z,20.96
2022-10-28T11:46:00.280Z,20.97
2022-10-28T11:49:20.806Z,20.99
2022-10-28T11:52:32.294Z,20.97
2022-10-28T11:55:37.169Z,20.96
2022-10-28T11:58:43.468Z,20.97
2022-10-28T12:01:49.368Z,20.89
2022-10-28T12:04:59.384Z,21.07
2022-10-28T12:08:12.571Z,20.99
2022-10-28T12:11:22.511Z,21.00
2022-10-28T12:14:29.151Z,21.00
2022-10-28T12:17:35.756Z,21.14
2022-10-28T12:20:42.776Z,21.03
2022-10-28T12:23:47.787Z,21.03
2022-10-28T12:26:53.018Z,21.06
2022-10-28T12:29:59.247Z,21.03
2022-10-28T12:33:06.224Z,21.04
2022-10-28T12:36:20.400Z,21.06
2022-10-28T12:39:26.783Z,21.07
2022-10-28T12:42:33.401Z,21.11
2022-10-28T12:45:36.969Z,21.04
2022-10-28T12:48:45.781Z,21.06
2022-10-28T12:51:48.829Z,21.24
2022-10-28T12:54:57.502Z,21.15
2022-10-28T12:58:03.703Z,21.11
2022-10-28T13:01:10.949Z,21.16
2022-10-28T13:04:14.522Z,21.07
2022-10-28T13:07:29.047Z,21.12
2022-10-28T13:10:37.149Z,21.23
2022-10-28T13:13:43.961Z,21.12
2022-10-28T13:20:13.993Z,21.17
2022-10-28T13:23:26.836Z,21.27
2022-10-28T13:26:32.331Z,21.23
2022-10-28T13:29:37.707Z,21.30
2022-10-28T13:32:41.704Z,21.26
2022-10-28T13:35:44.589Z,21.25
2022-10-28T13:38:52.482Z,21.27
2022-10-28T13:42:23.531Z,21.34
2022-10-28T13:45:45.567Z,21.23
2022-10-28T13:48:49.818Z,21.33
2022-10-28T13:51:53.105Z,21.38
2022-10-28T13:54:58.901Z,21.34
2022-10-28T13:58:04.502Z,21.37
2022-10-28T14:01:22.202Z,21.32
2022-10-28T14:04:31.499Z,21.36
2022-10-28T14:07:36.527Z,21.37
2022-10-28T14:10:40.034Z,21.39
2022-10-28T14:13:49.451Z,21.41
2022-10-28T14:16:52.970Z,21.42
2022-10-28T14:19:57.557Z,21.39
2022-10-28T14:23:00.747Z,21.44
2022-10-28T14:26:05.634Z,21.45
2022-10-28T14:29:23.256Z,21.47
2022-10-28T14:32:43.160Z,21.45
2022-10-28T14:35:48.576Z,21.49
2022-10-28T14:38:59.182Z,21.42
2022-10-28T14:42:10.450Z,21.48
2022-10-28T14:45:21.837Z,21.39
2022-10-28T14:48:38.332Z,21.44
2022-10-28T14:51:43.303Z,21.42
2022-10-28T14:54:49.053Z,21.52
2022-10-28T14:57:52.011Z,21.50
2022-10-28T15:00:59.402Z,21.49
2022-10-28T15:04:03.476Z,21.50
2022-10-28T15:07:10.401Z,21.48
2022-10-28T15:10:17.930Z,21.46
2022-10-28T15:13:27.845Z,21.66
2022-10-28T15:16:30.688Z,21.57
2022-10-28T15:19:35.330Z,21.55
2022-10-28T15:22:41.840Z,21.64
2022-10-28T15:25:44.733Z,21.66
2022-10-28T15:28:47.597Z,21.58
2022-10-28T15:32:16.271Z,21.52
2022-10-28T15:35:40.353Z,21.65
2022-10-28T15:38:46.478Z,21.56
2022-10-28T15:41:53.304Z,21.57
2022-10-28T15:44:56.731Z,21.30
2022-10-28T15:48:00.296Z,21.46
2022-10-28T15:51:12.809Z,21.45
2022-10-28T15:54:20.080Z,21.47
2022-10-28T15:57:23.676Z,21.37
2022-10-28T16:00:27.702Z,21.53
2022-10-28T16:03:42.218Z,21.53
2022-10-28T16:06:45.053Z,21.54
2022-10-28T16:09:50.218Z,21.42
2022-10-28T16:12:53.080Z,21.56
2022-10-28T16:15:58.649Z,21.51
2022-10-28T16:19:08.651Z,21.51
2022-10-28T16:22:12.955Z,21.54
2022-10-28T16:25:18.394Z,21.53
2022-10-28T16:28:24.808Z,21.48
2022-10-28T16:31:29.397Z,21.45
2022-10-28T16:34:32.296Z,21.45
2022-10-28T16:37:38.272Z,21.45
2022-10-28T16:40:51.478Z,21.49
2022-10-28T16:43:55.967Z,21.48
2022-10-28T16:46:59.072Z,21.42
2022-10-28T16:50:01.898Z,21.42
2022-10-28T16:53:04.658Z,21.39
2022-10-28T16:56:13.694Z,21.34
2022-10-28T16:59:18.250Z,21.27
2022-10-28T17:02:23.804Z,21.55
2022-10-28T17:05:26.695Z,21.09
2022-10-28T17:08:56.536Z,21.24
2022-10-28T17:11:54.039Z,21.27
2022-10-28T17:14:56.817Z,21.27
2022-10-28T17:17:59.711Z,21.27
2022-10-28T17:21:03.411Z,21.30
2022-10-28T17:24:06.464Z,21.30
2022-10-28T17:27:10.584Z,21.27
2022-10-28T17:30:13.796Z,21.30
2022-10-28T17:33:17.037Z,21.34
2022-10-28T17:36:20.016Z,21.28
2022-10-28T17:39:26.234Z,21.25
2022-10-28T17:42:30.679Z,21.20
2022-10-28T17:45:33.793Z,21.20
2022-10-28T17:48:36.626Z,21.19
2022-10-28T17:51:39.925Z,21.19
2022-10-28T17:54:42.733Z,21.22
2022-10-28T17:57:47.301Z,21.19
2022-10-28T18:00:50.117Z,21.18
2022-10-28T18:03:53.019Z,21.17
2022-10-28T18:06:58.640Z,21.12
2022-10-28T18:10:01.457Z,21.10
2022-10-28T18:13:06.026Z,21.05
2022-10-28T18:16:10.199Z,21.07
2022-10-28T18:19:13.533Z,21.05
2022-10-28T18:22:16.762Z,21.04
2022-10-28T18:25:19.809Z,21.03
2022-10-28T18:28:23.945Z,21.07
2022-10-28T18:31:26.714Z,21.31
2022-10-28T18:34:29.743Z,21.07
2022-10-28T18:37:32.559Z,21.05
2022-10-28T18:40:35.698Z,21.04
2022-10-28T18:43:42.292Z,20.96
2022-10-28T18:46:46.369Z,20.92
2022-10-28T18:49:49.353Z,20.99
2022-10-28T18:52:52.694Z,20.99
2022-10-28T18:56:00.733Z,20.97
2022-10-28T18:59:05.509Z,20.94
2022-10-28T19:02:09.716Z,20.90
2022-10-28T19:05:12.869Z,20.90
2022-10-28T19:08:17.742Z,20.92
2022-10-28T19:11:20.826Z,20.97
2022-10-28T19:14:25.016Z,20.97
2022-10-28T19:17:27.772Z,20.94
2022-10-28T19:20:30.792Z,20.80
2022-10-28T19:23:36.522Z,20.62
2022-10-28T19:26:39.489Z,20.56
2022-10-28T19:29:43.675Z,20.84
2022-10-28T19:32:46.509Z,20.89
2022-10-28T19:35:49.282Z,20.89
2022-10-28T19:38:53.796Z,20.90
2022-10-28T19:41:56.707Z,20.84
2022-10-28T19:45:01.001Z,21.00
2022-10-28T19:48:03.811Z,20.87
2022-10-28T19:51:07.031Z,20.84
2022-10-28T19:54:11.290Z,20.89
2022-10-28T20:00:23.285Z,20.80
2022-10-28T20:03:26.108Z,20.80
2022-10-28T20:06:31.457Z,20.79
2022-10-28T20:09:34.280Z,20.79
2022-10-28T20:12:37.039Z,20.76
2022-10-28T20:15:41.257Z,20.71
2022-10-28T20:18:44.185Z,20.80
2022-10-28T20:21:48.703Z,20.72
2022-10-28T20:24:54.226Z,20.68
2022-10-28T20:27:57.337Z,20.69
2022-10-28T20:31:02.673Z,20.68
2022-10-28T20:34:05.951Z,20.66
2022-10-28T20:37:08.675Z,20.60
2022-10-28T20:40:11.845Z,20.63
2022-10-28T20:43:14.652Z,20.55
2022-10-28T20:46:20.203Z,20.57
2022-10-28T20:49:23.218Z,20.55
2022-10-28T20:52:25.969Z,20.55
2022-10-28T20:55:28.778Z,20.52
2022-10-28T20:58:32.273Z,20.46
2022-10-28T21:01:37.414Z,20.54
2022-10-28T21:04:40.409Z,20.52
2022-10-28T21:07:43.200Z,20.52
2022-10-28T21:10:45.995Z,20.51
2022-10-28T21:13:51.114Z,20.51
2022-10-28T21:16:55.296Z,20.54
2022-10-28T21:19:58.091Z,20.46
2022-10-28T21:23:01.176Z,20.42
2022-10-28T21:26:05.022Z,20.45
2022-10-28T21:29:07.844Z,20.42
2022-10-28T21:32:11.968Z,20.47
2022-10-28T21:35:14.745Z,20.46
2022-10-28T21:38:18.144Z,20.39
2022-10-28T21:41:21.806Z,20.36
2022-10-28T21:44:24.553Z,20.35
2022-10-28T21:47:28.957Z,20.31
2022-10-28T21:50:31.746Z,20.29
2022-10-28T21:53:35.324Z,20.39
2022-10-28T21:56:38.183Z,20.37
2022-10-28T21:59:40.922Z,20.45
2022-10-28T22:02:45.185Z,20.51
2022-10-28T22:05:51.118Z,20.44
2022-10-28T22:08:53.949Z,20.37
2022-10-28T22:11:56.686Z,20.36
2022-10-28T22:14:59.449Z,20.37
2022-10-28T22:18:03.634Z,20.42
2022-10-28T22:21:07.125Z,20.48
2022-10-28T22:24:10.303Z,20.43
2022-10-28T22:27:13.076Z,20.42
2022-10-28T22:30:15.865Z,20.44
2022-10-28T22:33:20.021Z,20.42
2022-10-28T22:36:23.364Z,20.40
2022-10-28T22:39:26.145Z,20.44
2022-10-28T22:42:28.959Z,20.40
2022-10-28T22:45:31.722Z,20.37
2022-10-28T22:48:35.988Z,20.39
2022-10-28T22:51:38.766Z,20.36
2022-10-28T22:54:41.508Z,20.36
2022-10-28T22:57:45.392Z,20.35
2022-10-28T23:00:48.136Z,20.34
2022-10-28T23:03:52.957Z,20.36
2022-10-28T23:06:55.751Z,20.35
2022-10-28T23:10:00.623Z,20.34
2022-10-28T23:13:03.796Z,20.31
2022-10-28T23:16:07.130Z,20.32
2022-10-28T23:19:11.222Z,20.31
2022-10-28T23:22:14.024Z,20.35
2022-10-28T23:25:17.084Z,20.33
2022-10-28T23:28:19.867Z,20.31
2022-10-28T23:31:23.282Z,20.34
2022-10-28T23:34:28.360Z,20.31
2022-10-28T23:37:31.073Z,20.28
2022-10-28T23:40:33.882Z,20.29
2022-10-28T23:43:37.885Z,20.29
2022-10-28T23:46:40.743Z,20.29
2022-10-28T23:49:44.830Z,20.26
2022-10-28T23:52:47.590Z,20.24
2022-10-28T23:55:51.361Z,20.21
2022-10-28T23:58:54.193Z,20.22
